createdAt,value
2023-05-10T00:00:33.766Z,101193.80
2023-05-10T00:05:42.358Z,101184.60
2023-05-10T00:10:42.346Z,101177.60
2023-05-10T00:15:41.940Z,101181.20
2023-05-10T00:20:41.365Z,101172.20
2023-05-10T00:25:41.284Z,101161.60
2023-05-10T00:30:40.135Z,101159.60
2023-05-10T00:35:39.651Z,101157.60
2023-05-10T00:40:39.378Z,101157.00
2023-05-10T00:45:44.102Z,101158.00
2023-05-10T00:50:45.884Z,101152.60
2023-05-10T00:55:45.200Z,101150.40
2023-05-10T01:00:48.597Z,101152.40
2023-05-10T01:05:48.175Z,101152.80
2023-05-10T01:10:50.335Z,101149.40
2023-05-10T01:15:50.645Z,101140.40
2023-05-10T01:20:58.316Z,101137.60
2023-05-10T01:32:25.523Z,101132.40
2023-05-10T01:37:34.197Z,101128.20
2023-05-10T01:42:43.168Z,101128.00
2023-05-10T01:47:49.355Z,101122.20
2023-05-10T01:52:53.760Z,101119.20
2023-05-10T01:58:05.196Z,101113.40
2023-05-10T02:03:10.784Z,101107.80
2023-05-10T02:08:14.085Z,101106.60
2023-05-10T02:13:15.300Z,101106.40
2023-05-10T02:18:16.671Z,101101.00
2023-05-10T02:23:17.748Z,101098.60
2023-05-10T02:28:19.785Z,101105.80
2023-05-10T02:33:20.627Z,101107.40
2023-05-10T02:38:24.158Z,101104.00
2023-05-10T02:43:26.908Z,101102.60
2023-05-10T02:48:26.087Z,101107.60
2023-05-10T02:53:35.584Z,101106.20
2023-05-10T02:58:35.118Z,101106.60
2023-05-10T03:03:34.488Z,101111.20
2023-05-10T03:08:34.715Z,101110.80
2023-05-10T03:13:38.634Z,101111.80
2023-05-10T03:18:46.784Z,101108.20
2023-05-10T03:23:53.877Z,101113.80
2023-05-10T03:28:55.021Z,101113.20
2023-05-10T03:33:55.648Z,101102.20
2023-05-10T03:38:58.066Z,101104.80
2023-05-10T03:43:57.866Z,101101.80
2023-05-10T03:48:57.127Z,101108.40
2023-05-10T03:53:57.329Z,101108.00
2023-05-10T03:58:56.297Z,101104.60
2023-05-10T04:03:55.731Z,101108.40
2023-05-10T04:08:55.161Z,101108.00
2023-05-10T04:13:54.904Z,101106.00
2023-05-10T04:18:54.258Z,101111.20
2023-05-10T04:23:53.630Z,101116.40
2023-05-10T04:28:54.023Z,101121.40
2023-05-10T04:33:54.564Z,101120.00
2023-05-10T04:38:55.108Z,101123.20
2023-05-10T04:43:54.718Z,101129.40
2023-05-10T04:48:54.409Z,101128.40
2023-05-10T04:54:05.141Z,101129.00
2023-05-10T04:59:06.106Z,101134.40
2023-05-10T05:04:05.170Z,101132.60
2023-05-10T05:09:04.989Z,101129.80
2023-05-10T05:14:04.653Z,101132.60
2023-05-10T05:19:04.682Z,101124.20
2023-05-10T05:24:04.026Z,101127.40
2023-05-10T05:29:04.363Z,101125.80
2023-05-10T05:34:03.383Z,101126.00
2023-05-10T05:39:02.862Z,101136.00
2023-05-10T05:44:02.094Z,101135.00
2023-05-10T05:49:02.651Z,101137.20
2023-05-10T05:54:06.756Z,101142.20
2023-05-10T05:59:22.274Z,101141.20
2023-05-10T06:04:22.449Z,101136.00
2023-05-10T06:09:22.238Z,101145.20
2023-05-10T06:14:22.402Z,101137.60
2023-05-10T06:19:22.408Z,101141.00
2023-05-10T06:24:22.284Z,101146.00
2023-05-10T06:29:21.261Z,101141.00
2023-05-10T06:34:20.578Z,101141.60
2023-05-10T06:39:20.137Z,101145.20
2023-05-10T06:44:21.011Z,101143.60
2023-05-10T06:49:20.521Z,101140.00
2023-05-10T06:54:19.906Z,101141.40
2023-05-10T06:59:20.560Z,101137.40
2023-05-10T07:04:20.386Z,101132.60
2023-05-10T07:09:20.591Z,101135.00
2023-05-10T07:14:20.458Z,101138.60
2023-05-10T07:19:22.870Z,101126.00
2023-05-10T07:24:22.086Z,101126.40
2023-05-10T07:29:29.942Z,101124.80
2023-05-10T07:34:31.208Z,101121.80
2023-05-10T07:39:30.379Z,101129.60
2023-05-10T07:44:30.716Z,101118.00
2023-05-10T07:49:30.432Z,101134.40
2023-05-10T07:54:29.462Z,101126.80
2023-05-10T07:59:30.708Z,101111.80
2023-05-10T08:04:30.105Z,101117.20
2023-05-10T08:09:29.071Z,101111.00
2023-05-10T08:14:29.471Z,101119.80
2023-05-10T08:19:29.705Z,101116.80
2023-05-10T08:24:28.632Z,101111.80
2023-05-10T08:29:30.403Z,101100.20
2023-05-10T08:34:32.171Z,101112.60
2023-05-10T08:39:32.641Z,101106.60
2023-05-10T08:44:33.059Z,101114.60
2023-05-10T08:49:35.769Z,101113.40
2023-05-10T08:54:36.624Z,101112.40
2023-05-10T08:59:36.188Z,101111.00
2023-05-10T09:04:36.375Z,101111.60
2023-05-10T09:09:36.142Z,101098.20
2023-05-10T09:14:39.258Z,101108.20
2023-05-10T09:19:38.299Z,101094.00
2023-05-10T09:24:38.219Z,101083.60
2023-05-10T09:29:46.545Z,101085.00
2023-05-10T09:34:46.240Z,101088.60
2023-05-10T09:39:45.408Z,101093.00
2023-05-10T09:44:44.604Z,101089.60
2023-05-10T09:49:45.654Z,101100.80
2023-05-10T09:54:57.039Z,101088.80
2023-05-10T09:59:58.795Z,101089.20
2023-05-10T10:04:59.246Z,101091.60
2023-05-10T10:10:01.560Z,101086.60
2023-05-10T10:15:02.457Z,101083.40
2023-05-10T10:20:04.993Z,101079.00
2023-05-10T10:25:05.006Z,101075.60
2023-05-10T10:30:28.501Z,101071.60
2023-05-10T10:35:28.559Z,101069.20
2023-05-10T10:40:40.796Z,101067.60
2023-05-10T10:45:43.822Z,101054.80
2023-05-10T10:50:58.394Z,101054.80
2023-05-10T10:56:11.060Z,101056.00
2023-05-10T11:01:19.463Z,101053.20
2023-05-10T11:06:34.769Z,101050.40
2023-05-10T11:11:34.705Z,101043.00
2023-05-10T11:16:45.273Z,101039.60
2023-05-10T11:21:55.258Z,101038.00
2023-05-10T11:26:56.262Z,101040.20
2023-05-10T11:31:58.756Z,101034.20
2023-05-10T11:37:00.191Z,101026.00
2023-05-10T11:42:01.318Z,101032.80
2023-05-10T11:47:02.667Z,101022.20
2023-05-10T11:52:12.440Z,101023.40
2023-05-10T11:57:11.153Z,101030.20
2023-05-10T12:02:09.954Z,101020.80
2023-05-10T12:07:09.965Z,101026.80
2023-05-10T12:12:09.579Z,101020.60
2023-05-10T12:17:08.982Z,101020.40
2023-05-10T12:22:13.026Z,101022.00
2023-05-10T12:27:14.000Z,101017.00
2023-05-10T12:32:13.401Z,101026.40
2023-05-10T12:37:13.929Z,101023.80
2023-05-10T12:42:13.317Z,101018.40
2023-05-10T12:47:13.371Z,101016.40
2023-05-10T12:52:12.471Z,101015.40
2023-05-10T12:57:11.865Z,101020.20
2023-05-10T13:02:13.370Z,101011.00
2023-05-10T13:07:12.915Z,101008.00
2023-05-10T13:12:14.439Z,101009.40
2023-05-10T13:17:14.704Z,101003.20
2023-05-10T13:22:17.154Z,101013.00
2023-05-10T13:27:19.527Z,101014.00
2023-05-10T13:32:20.135Z,101010.80
2023-05-10T13:37:22.400Z,101007.40
2023-05-10T13:42:22.968Z,101008.20
2023-05-10T13:47:25.094Z,101006.60
2023-05-10T13:52:25.544Z,101008.80
2023-05-10T13:57:26.295Z,101005.60
2023-05-10T14:02:28.649Z,101008.00
2023-05-10T14:07:29.181Z,101004.80
2023-05-10T14:12:28.550Z,100998.80
2023-05-10T14:17:28.848Z,101000.20
2023-05-10T14:22:29.175Z,101003.60
2023-05-10T14:27:29.725Z,100999.40
2023-05-10T14:32:33.447Z,100996.20
2023-05-10T14:37:33.654Z,100998.20
2023-05-10T14:42:33.892Z,101000.80
2023-05-10T14:47:34.411Z,100995.20
2023-05-10T14:52:36.207Z,100999.60
2023-05-10T14:57:35.873Z,100995.40
2023-05-10T15:02:37.875Z,101005.40
2023-05-10T15:07:37.843Z,100998.40
2023-05-10T15:12:37.119Z,101001.20
2023-05-10T15:17:36.659Z,100994.20
2023-05-10T15:22:39.387Z,100989.00
2023-05-10T15:27:39.264Z,100990.60
2023-05-10T15:32:41.315Z,100991.40
2023-05-10T15:37:41.649Z,100989.60
2023-05-10T15:42:42.026Z,100994.00
2023-05-10T15:47:41.965Z,100999.80
2023-05-10T15:52:44.260Z,101006.60
2023-05-10T15:57:49.515Z,100994.80
2023-05-10T16:02:53.275Z,100994.80
2023-05-10T16:07:55.253Z,101001.20
2023-05-10T16:12:56.346Z,101002.60
2023-05-10T16:17:57.297Z,101002.40
2023-05-10T16:23:02.180Z,101008.60
2023-05-10T16:28:02.627Z,101009.00
2023-05-10T16:33:07.435Z,101007.40
2023-05-10T16:38:08.835Z,101007.40
2023-05-10T16:43:08.788Z,101008.80
2023-05-10T16:48:10.991Z,101011.00
2023-05-10T16:53:12.675Z,101016.00
2023-05-10T16:58:14.090Z,101018.60
2023-05-10T17:03:28.308Z,101025.00
2023-05-10T17:08:28.084Z,101023.40
2023-05-10T17:13:30.392Z,101028.40
2023-05-10T17:18:31.731Z,101028.00
2023-05-10T17:23:31.924Z,101032.80
2023-05-10T17:28:35.635Z,101036.40
2023-05-10T17:33:47.609Z,101036.80
2023-05-10T17:38:50.691Z,101032.40
2023-05-10T17:43:52.209Z,101026.80
2023-05-10T17:48:53.650Z,101027.00
2023-05-10T17:53:54.441Z,101016.40
2023-05-10T17:59:02.854Z,101016.40
2023-05-10T18:04:06.428Z,101015.20
2023-05-10T18:09:08.850Z,101009.60
2023-05-10T18:14:12.709Z,101011.40
2023-05-10T18:19:12.493Z,101011.40
2023-05-10T18:24:13.577Z,101009.60
2023-05-10T18:29:15.699Z,101011.80
2023-05-10T18:34:23.997Z,101015.00
2023-05-10T18:39:26.908Z,101026.80
2023-05-10T18:44:35.739Z,101023.00
2023-05-10T18:49:36.966Z,101030.20
2023-05-10T18:54:36.600Z,101028.00
2023-05-10T18:59:44.858Z,101030.00
2023-05-10T19:04:44.530Z,101031.20
2023-05-10T19:09:44.662Z,101032.00
2023-05-10T19:14:45.152Z,101030.00
2023-05-10T19:19:49.723Z,101025.40
2023-05-10T19:24:50.141Z,101023.20
2023-05-10T19:29:52.215Z,101027.60
2023-05-10T19:34:55.410Z,101022.60
2023-05-10T19:39:56.770Z,101022.00
2023-05-10T19:45:00.821Z,101021.00
2023-05-10T19:50:00.094Z,101026.00
2023-05-10T19:54:59.885Z,101028.40
2023-05-10T19:59:59.262Z,101032.60
2023-05-10T20:05:00.629Z,101025.00
2023-05-10T20:10:00.162Z,101027.40
2023-05-10T20:15:00.777Z,101035.60
2023-05-10T20:20:00.783Z,101035.80
2023-05-10T20:25:01.693Z,101032.40
2023-05-10T20:30:01.237Z,101031.60
2023-05-10T20:35:01.631Z,101036.80
2023-05-10T20:40:00.977Z,101037.60
2023-05-10T20:45:02.481Z,101032.00
2023-05-10T20:50:04.331Z,101037.60
2023-05-10T20:55:03.914Z,101039.40
2023-05-10T21:00:04.074Z,101037.60
2023-05-10T21:05:05.479Z,101045.80
2023-05-10T21:10:05.057Z,101045.80
2023-05-10T21:15:04.455Z,101051.80
2023-05-10T21:20:04.015Z,101052.00
2023-05-10T21:25:05.243Z,101059.60
2023-05-10T21:30:04.488Z,101058.80
2023-05-10T21:35:04.467Z,101058.20
2023-05-10T21:40:05.176Z,101061.20
2023-05-10T21:45:04.071Z,101061.60
2023-05-10T21:50:04.358Z,101062.20
2023-05-10T21:55:04.642Z,101061.00
2023-05-10T22:00:17.029Z,101066.00
2023-05-10T22:05:19.353Z,101072.80
2023-05-10T22:10:19.423Z,101069.00
2023-05-10T22:15:20.006Z,101073.40
2023-05-10T22:20:25.874Z,101077.00
2023-05-10T22:25:26.673Z,101080.20
2023-05-10T22:30:27.236Z,101084.80
2023-05-10T22:35:26.424Z,101089.80
2023-05-10T22:40:25.837Z,101092.40
2023-05-10T22:45:25.950Z,101101.60
2023-05-10T22:50:25.490Z,101103.80
2023-05-10T22:55:25.742Z,101105.20
2023-05-10T23:00:25.343Z,101098.60
2023-05-10T23:05:25.343Z,101104.80
2023-05-10T23:10:24.914Z,101103.40
2023-05-10T23:15:24.505Z,101102.00
2023-05-10T23:20:24.309Z,101098.80
2023-05-10T23:25:23.642Z,101103.00
2023-05-10T23:30:23.282Z,101104.60
2023-05-10T23:35:23.152Z,101101.40
2023-05-10T23:40:23.596Z,101101.40
2023-05-10T23:45:23.117Z,101102.00
2023-05-10T23:50:23.176Z,101106.20
2023-05-10T23:55:24.881Z,101109.80
